Time;durP1;ratioP1;P1;durP2;ratioP2;P2;SDS_P1;SDS_P2;PMS_P1;PMS_P2;Temp;Humidity;BMP_temperature;BMP_pressure;BME280_temperature;BME280_humidity;BME280_pressure;Samples;Min_cycle;Max_cycle;Signal;HPM_P1;HPM_P2
2023/08/17 00:02:05;;;;;;;6.93;6.27;;;;;;;24.14;62.03;96310.94;5092189;28;20279;-71
2023/08/17 00:04:30;;;;;;;10.87;6.10;;;;;;;24.09;62.16;96302.50;5092622;28;21264;-70
2023/08/17 00:06:56;;;;;;;8.17;6.00;;;;;;;24.13;61.77;96298.53;5092595;28;20170;-69
2023/08/17 00:09:22;;;;;;;8.80;5.50;;;;;;;24.14;61.52;96297.53;5091693;28;20198;-70
2023/08/17 00:11:47;;;;;;;6.80;6.20;;;;;;;24.09;62.00;96302.50;5091911;28;20192;-73
2023/08/17 00:14:13;;;;;;;10.33;6.20;;;;;;;24.06;62.08;96302.81;5091540;28;20407;-69
2023/08/17 00:16:38;;;;;;;7.43;5.97;;;;;;;23.98;62.46;96303.59;5091681;28;20166;-70
2023/08/17 00:19:03;;;;;;;7.17;6.30;;;;;;;23.95;62.31;96301.19;5091124;28;20197;-69
2023/08/17 00:21:29;;;;;;;7.43;5.97;;;;;;;23.84;62.46;96304.97;5091782;28;20162;-74
2023/08/17 00:23:54;;;;;;;7.43;6.23;;;;;;;23.81;62.78;96299.06;5091580;28;20650;-68
2023/08/17 00:26:20;;;;;;;6.83;5.67;;;;;;;23.74;62.34;96301.53;5090928;28;20161;-69
2023/08/17 00:28:45;;;;;;;15.50;8.07;;;;;;;23.65;62.67;96310.44;5090976;28;20204;-71
2023/08/17 00:31:11;;;;;;;9.03;7.67;;;;;;;23.71;62.57;96307.13;5091120;28;20154;-69
2023/08/17 00:33:36;;;;;;;9.93;6.80;;;;;;;23.73;62.21;96310.50;5090717;28;20179;-72
2023/08/17 00:36:02;;;;;;;7.17;6.47;;;;;;;23.66;62.23;96309.41;5089931;28;20177;-71
2023/08/17 00:38:27;;;;;;;8.60;6.33;;;;;;;23.57;62.59;96313.84;5090917;28;20170;-71
2023/08/17 00:40:52;;;;;;;11.03;6.67;;;;;;;23.58;62.36;96320.91;5091195;28;20261;-70
2023/08/17 00:43:18;;;;;;;7.80;7.00;;;;;;;23.68;62.19;96315.47;5095526;28;20162;-70
2023/08/17 00:45:46;;;;;;;7.60;6.37;;;;;;;23.72;61.58;96313.31;5100749;28;20193;-69
2023/08/17 00:48:12;;;;;;;7.37;6.63;;;;;;;23.79;61.04;96304.59;5095892;28;20253;-72
2023/08/17 00:50:39;;;;;;;8.33;7.50;;;;;;;23.77;60.75;96303.06;5094295;28;20410;-72
2023/08/17 00:53:13;;;;;;;10.80;9.07;;;;;;;23.68;60.80;96302.91;5094002;28;20460;-70
2023/08/17 00:55:38;;;;;;;8.23;7.30;;;;;;;23.59;61.09;96298.47;5094161;28;20388;-70
2023/08/17 00:58:04;;;;;;;7.50;6.90;;;;;;;23.49;61.61;96295.00;5094602;28;20400;-70
2023/08/17 01:00:31;;;;;;;9.13;7.70;;;;;;;23.44;62.15;96297.28;5093090;28;20593;-69
2023/08/17 01:02:57;;;;;;;7.30;6.67;;;;;;;23.39;62.03;96297.75;5091211;28;20174;-73
2023/08/17 01:05:23;;;;;;;7.23;6.47;;;;;;;23.56;61.49;96295.25;5091269;28;20415;-72
2023/08/17 01:07:48;;;;;;;6.50;5.90;;;;;;;23.49;61.51;96297.69;5090641;28;20177;-71
2023/08/17 01:10:14;;;;;;;13.23;7.33;;;;;;;23.50;61.72;96296.69;5090298;28;20514;-69
2023/08/17 01:12:46;;;;;;;7.93;6.53;;;;;;;23.52;61.51;96299.22;5079277;28;20575;-69
2023/08/17 01:15:17;;;;;;;10.67;6.70;;;;;;;23.35;61.98;96299.03;5077075;28;20404;-72
2023/08/17 01:17:46;;;;;;;9.83;7.10;;;;;;;23.38;61.65;96289.84;5075579;28;20423;-69
2023/08/17 01:20:14;;;;;;;7.43;6.73;;;;;;;23.31;61.87;96291.44;5073455;28;20467;-71
2023/08/17 01:22:45;;;;;;;7.33;6.73;;;;;;;23.25;61.72;96285.69;5070225;28;20893;-70
2023/08/17 01:25:11;;;;;;;9.50;7.07;;;;;;;23.25;61.83;96288.38;5069015;28;20413;-71
2023/08/17 01:27:41;;;;;;;8.07;7.27;;;;;;;23.16;62.25;96283.06;5068939;28;20594;-71
2023/08/17 01:30:12;;;;;;;7.80;6.67;;;;;;;23.06;62.49;96284.97;5068326;28;20193;-71
2023/08/17 01:32:56;;;;;;;8.50;7.30;;;;;;;23.07;62.48;96283.94;5068731;28;20521;-69
2023/08/17 01:35:21;;;;;;;10.57;7.00;;;;;;;23.01;62.55;96282.72;5068513;28;20413;-72
2023/08/17 01:37:50;;;;;;;7.90;7.07;;;;;;;22.89;62.88;96276.69;5068367;28;20939;-73
2023/08/17 01:40:17;;;;;;;7.70;7.00;;;;;;;22.94;62.63;96276.25;5068023;28;20202;-71
2023/08/17 01:42:43;;;;;;;12.63;7.50;;;;;;;22.95;62.82;96267.22;5068580;28;20788;-70
2023/08/17 01:45:09;;;;;;;7.60;6.80;;;;;;;22.98;62.46;96266.91;5069235;28;20436;-70
2023/08/17 01:47:35;;;;;;;10.93;6.70;;;;;;;23.09;62.31;96261.41;5067965;28;20412;-69
2023/08/17 01:50:00;;;;;;;9.40;6.83;;;;;;;23.09;62.26;96264.06;5068468;28;20455;-69
2023/08/17 01:52:27;;;;;;;6.90;6.30;;;;;;;23.03;62.34;96265.53;5068494;28;20239;-69
2023/08/17 01:54:53;;;;;;;6.93;6.33;;;;;;;23.06;61.88;96266.22;5068430;28;20244;-70
2023/08/17 01:57:18;;;;;;;9.97;6.00;;;;;;;23.10;61.88;96272.94;5068430;28;20404;-67
2023/08/17 01:59:43;;;;;;;10.83;6.97;;;;;;;23.11;61.74;96262.09;5068009;28;20280;-71
2023/08/17 02:02:09;;;;;;;9.10;6.60;;;;;;;23.11;61.38;96266.63;5072317;28;20487;-71
2023/08/17 02:04:34;;;;;;;8.40;6.83;;;;;;;23.12;61.32;96266.44;5074777;28;20224;-70
2023/08/17 02:07:00;;;;;;;7.90;6.03;;;;;;;23.11;61.14;96274.66;5074315;28;20239;-71
2023/08/17 02:09:25;;;;;;;7.60;6.20;;;;;;;22.99;61.48;96264.13;5075465;28;20675;-70
2023/08/17 02:11:50;;;;;;;7.33;6.03;;;;;;;23.00;61.75;96263.13;5081943;28;20170;-69
2023/08/17 02:14:16;;;;;;;7.57;6.77;;;;;;;23.12;61.29;96261.09;5092372;28;20177;-73
2023/08/17 02:16:41;;;;;;;9.67;6.50;;;;;;;23.03;61.54;96259.31;5088016;28;20166;-70
2023/08/17 02:19:07;;;;;;;7.70;7.00;;;;;;;23.02;61.48;96260.31;5087824;28;20938;-69
2023/08/17 02:21:33;;;;;;;7.63;7.03;;;;;;;23.05;61.52;96265.34;5088338;28;20199;-70
2023/08/17 02:23:58;;;;;;;7.67;6.97;;;;;;;22.98;61.57;96258.88;5088017;28;20177;-73
2023/08/17 02:26:23;;;;;;;6.60;5.40;;;;;;;23.02;61.48;96257.63;5088266;28;20191;-69
2023/08/17 02:28:49;;;;;;;7.00;6.23;;;;;;;23.02;61.51;96257.63;5087796;28;20220;-71
2023/08/17 02:31:14;;;;;;;7.97;6.87;;;;;;;22.92;61.75;96259.47;5088155;28;20530;-72
2023/08/17 02:33:39;;;;;;;7.80;6.53;;;;;;;22.96;61.48;96250.16;5087764;28;20166;-70
2023/08/17 02:36:05;;;;;;;6.73;6.10;;;;;;;22.92;61.65;96243.44;5087739;28;20176;-71
2023/08/17 02:38:31;;;;;;;7.40;5.93;;;;;;;22.88;61.51;96247.38;5088102;28;20623;-72
2023/08/17 02:40:56;;;;;;;6.70;6.10;;;;;;;22.71;61.85;96236.47;5087212;28;20288;-70
2023/08/17 02:43:21;;;;;;;6.03;5.40;;;;;;;22.78;61.74;96242.91;5087795;28;20169;-72
2023/08/17 02:45:47;;;;;;;8.80;5.50;;;;;;;22.73;61.50;96237.16;5087789;28;20180;-71
2023/08/17 02:48:12;;;;;;;5.93;5.43;;;;;;;22.64;62.07;96235.34;5087919;28;20689;-70
2023/08/17 02:50:37;;;;;;;6.00;5.50;;;;;;;22.61;62.21;96238.34;5087286;28;20196;-70
2023/08/17 02:53:03;;;;;;;8.17;5.80;;;;;;;22.46;62.67;96240.59;5087729;28;20166;-70
2023/08/17 02:55:28;;;;;;;10.40;6.80;;;;;;;22.60;62.20;96240.13;5087551;28;20189;-70
2023/08/17 02:57:54;;;;;;;6.93;5.60;;;;;;;22.68;62.16;96241.25;5087118;28;20201;-70
2023/08/17 03:00:19;;;;;;;7.60;5.93;;;;;;;22.63;61.80;96236.34;5086978;28;20229;-73
2023/08/17 03:02:44;;;;;;;7.97;5.50;;;;;;;22.72;61.48;96235.44;5087578;28;20173;-70
2023/08/17 03:05:10;;;;;;;6.70;6.10;;;;;;;22.62;61.66;96246.19;5087442;28;20578;-70
2023/08/17 03:07:35;;;;;;;8.97;5.90;;;;;;;22.68;61.59;96241.25;5087367;28;20212;-69
2023/08/17 03:10:00;;;;;;;6.70;6.03;;;;;;;22.68;61.75;96242.09;5087014;28;20181;-72
2023/08/17 03:12:26;;;;;;;10.43;5.67;;;;;;;22.67;61.53;96236.91;5077522;28;20924;-72
2023/08/17 03:14:51;;;;;;;11.17;7.00;;;;;;;22.69;61.76;96237.59;5067999;28;20178;-69
2023/08/17 03:17:17;;;;;;;7.20;5.80;;;;;;;22.62;61.84;96234.66;5067179;28;20169;-72
2023/08/17 03:19:43;;;;;;;7.17;6.00;;;;;;;22.68;61.98;96233.22;5066790;28;20271;-68
2023/08/17 03:22:09;;;;;;;8.10;6.37;;;;;;;22.56;62.04;96233.41;5067048;28;20420;-71
2023/08/17 03:24:34;;;;;;;7.00;6.30;;;;;;;22.46;62.26;96229.06;5067377;28;20257;-71
2023/08/17 03:26:59;;;;;;;7.83;6.93;;;;;;;22.41;62.53;96230.34;5067112;28;20202;-71
2023/08/17 03:29:26;;;;;;;10.73;6.47;;;;;;;22.41;62.67;96233.00;5066952;28;20202;-69
2023/08/17 03:31:51;;;;;;;10.03;6.70;;;;;;;22.44;62.42;96234.59;5067174;28;21113;-70
2023/08/17 03:34:16;;;;;;;10.17;6.93;;;;;;;22.40;62.36;96239.38;5067349;28;20499;-74
2023/08/17 03:36:42;;;;;;;9.40;6.73;;;;;;;22.37;62.16;96238.78;5067063;28;20166;-72
2023/08/17 03:39:07;;;;;;;8.90;6.03;;;;;;;22.39;62.33;96237.69;5074871;28;20281;-69
2023/08/17 03:41:33;;;;;;;16.00;7.70;;;;;;;22.41;62.34;96241.03;5067203;28;20654;-71
2023/08/17 03:43:58;;;;;;;12.60;6.60;;;;;;;22.34;62.49;96245.28;5067310;28;20212;-70
2023/08/17 03:46:23;;;;;;;11.50;6.87;;;;;;;22.41;62.48;96242.88;5067415;28;20232;-69
2023/08/17 03:48:49;;;;;;;10.80;6.40;;;;;;;22.34;62.82;96247.94;5066628;28;20313;-72
2023/08/17 03:51:14;;;;;;;8.53;6.00;;;;;;;22.31;62.84;96250.09;5066902;28;20166;-69
2023/08/17 03:53:39;;;;;;;11.37;6.60;;;;;;;22.29;62.80;96247.53;5066842;28;20180;-72
2023/08/17 03:56:05;;;;;;;10.53;6.10;;;;;;;22.32;62.71;96252.63;5067185;28;20258;-69
2023/08/17 03:58:34;;;;;;;17.07;8.03;;;;;;;22.28;62.60;96258.41;5067025;28;20201;-71
2023/08/17 04:00:59;;;;;;;24.07;7.70;;;;;;;22.28;62.55;96258.41;5067061;28;20594;-71
2023/08/17 04:03:25;;;;;;;12.63;6.60;;;;;;;22.22;63.01;96261.63;5066929;28;20470;-69
2023/08/17 04:05:50;;;;;;;10.63;6.63;;;;;;;22.07;63.50;96271.91;5066919;28;20203;-69
2023/08/17 04:08:16;;;;;;;14.57;6.40;;;;;;;22.07;63.24;96275.41;5067162;28;20190;-70
2023/08/17 04:10:41;;;;;;;10.20;5.87;;;;;;;22.02;63.43;96279.50;5067972;28;20166;-73
2023/08/17 04:13:06;;;;;;;15.90;7.80;;;;;;;21.72;65.81;96284.81;5086571;28;20192;-73
2023/08/17 04:15:32;;;;;;;13.33;8.07;;;;;;;21.93;65.50;96284.69;5090705;28;20212;-73
2023/08/17 04:17:57;;;;;;;9.03;8.10;;;;;;;;;;5090690;28;20181;-69
2023/08/17 04:20:22;;;;;;;10.90;7.67;;;;;;;21.77;65.88;96298.59;5090294;28;20781;-70
2023/08/17 04:22:48;;;;;;;17.30;7.80;;;;;;;21.54;66.59;96287.34;5091195;28;20227;-70
2023/08/17 04:25:13;;;;;;;13.10;8.30;;;;;;;21.11;68.40;96299.09;5090443;28;20166;-70
2023/08/17 04:27:39;;;;;;;9.50;7.87;;;;;;;21.19;68.60;96295.78;5090621;28;20169;-69
2023/08/17 04:30:05;;;;;;;14.23;7.13;;;;;;;21.18;68.77;96295.91;5090005;28;20677;-70
2023/08/17 04:32:31;;;;;;;8.73;7.83;;;;;;;21.05;69.06;96302.31;5090814;28;20919;-70
2023/08/17 04:34:56;;;;;;;10.93;8.20;;;;;;;21.02;69.21;96299.91;5090392;28;20419;-72
2023/08/17 04:37:22;;;;;;;17.83;8.40;;;;;;;21.24;68.24;96314.06;5090554;28;20208;-72
2023/08/17 04:39:48;;;;;;;13.67;8.63;;;;;;;21.47;66.88;96310.22;5089907;28;20208;-73
2023/08/17 04:42:14;;;;;;;29.13;8.43;;;;;;;21.69;66.09;96298.44;5089881;28;20184;-69
2023/08/17 04:44:39;;;;;;;6.63;5.40;;;;;;;21.70;65.87;96296.63;5090571;28;20446;-70
2023/08/17 04:47:05;;;;;;;9.07;6.30;;;;;;;21.80;65.35;96299.28;5091463;28;20447;-70
2023/08/17 04:49:30;;;;;;;11.60;6.43;;;;;;;21.75;65.57;96305.06;5089333;28;20197;-70
2023/08/17 04:51:56;;;;;;;23.50;7.73;;;;;;;21.73;65.54;96299.00;5090114;28;20986;-70
2023/08/17 04:54:21;;;;;;;22.20;7.67;;;;;;;21.84;65.07;96301.53;5089813;28;20192;-72
2023/08/17 04:56:47;;;;;;;10.90;6.10;;;;;;;21.88;64.67;96316.31;5090170;28;20227;-73
2023/08/17 04:59:12;;;;;;;11.93;6.00;;;;;;;21.89;64.88;96309.16;5093078;28;20243;-69
2023/08/17 05:01:38;;;;;;;15.37;6.40;;;;;;;21.97;64.39;96311.97;5094628;28;20178;-71
2023/08/17 05:04:04;;;;;;;11.50;6.50;;;;;;;21.96;64.51;96308.44;5093993;28;20544;-70
2023/08/17 05:06:31;;;;;;;9.80;6.00;;;;;;;22.02;63.88;96312.41;5092568;28;20591;-74
2023/08/17 05:08:57;;;;;;;12.97;7.27;;;;;;;22.03;64.12;96305.22;5090964;28;20444;-74
2023/08/17 05:11:23;;;;;;;15.80;6.83;;;;;;;21.95;64.26;96298.75;5088625;28;20873;-68
2023/08/17 05:13:49;;;;;;;17.73;8.20;;;;;;;21.93;64.34;96305.22;5069719;28;20208;-71
2023/08/17 05:16:14;;;;;;;16.10;7.17;;;;;;;22.42;62.55;96298.06;5069788;28;20174;-70
2023/08/17 05:18:40;;;;;;;18.00;7.23;;;;;;;22.84;61.06;96294.97;5069388;28;20507;-73
2023/08/17 05:21:06;;;;;;;26.43;7.27;;;;;;;23.43;58.95;96299.13;5068935;28;20286;-69
2023/08/17 05:23:31;;;;;;;6.50;5.77;;;;;;;23.93;57.37;96299.66;5069621;28;20180;-68
2023/08/17 05:25:56;;;;;;;12.63;6.90;;;;;;;24.41;56.08;96287.72;5069173;28;20405;-73
2023/08/17 05:28:22;;;;;;;17.43;7.50;;;;;;;24.75;55.29;96286.97;5069049;28;20174;-72
2023/08/17 05:30:49;;;;;;;14.90;6.23;;;;;;;24.96;54.34;96286.59;5068880;28;20228;-70
2023/08/17 05:33:14;;;;;;;11.60;6.20;;;;;;;25.21;53.50;96287.59;5068898;28;20253;-69
2023/08/17 05:35:39;;;;;;;15.13;6.30;;;;;;;25.35;52.96;96287.81;5068836;28;20499;-71
2023/08/17 05:38:05;;;;;;;25.20;7.80;;;;;;;24.99;54.05;96295.16;5069110;28;20827;-72
2023/08/17 05:40:31;;;;;;;9.90;6.40;;;;;;;25.41;52.63;96282.78;5068472;28;20224;-68
2023/08/17 05:42:57;;;;;;;15.00;7.97;;;;;;;25.58;52.64;96284.50;5069006;28;20621;-71
2023/08/17 05:45:22;;;;;;;15.83;7.03;;;;;;;25.81;51.81;96289.28;5080086;28;20437;-75
2023/08/17 05:47:48;;;;;;;11.73;6.37;;;;;;;25.89;51.23;96286.63;5084418;28;20234;-69
2023/08/17 05:50:13;;;;;;;12.43;6.47;;;;;;;26.23;50.50;96285.69;5075442;28;20206;-71
2023/08/17 05:52:41;;;;;;;13.90;7.10;;;;;;;26.12;50.59;96287.66;5073947;28;20166;-72
2023/08/17 05:55:07;;;;;;;10.53;7.10;;;;;;;26.23;50.37;96288.38;5077041;28;20166;-71
2023/08/17 05:57:32;;;;;;;12.27;6.20;;;;;;;26.44;49.93;96287.88;5076324;28;21356;-74
2023/08/17 05:59:57;;;;;;;9.57;6.10;;;;;;;26.40;49.67;96290.88;5076105;28;20838;-70
2023/08/17 06:02:23;;;;;;;11.03;5.83;;;;;;;26.47;49.51;96290.22;5081971;28;20173;-70
2023/08/17 06:04:48;;;;;;;18.73;7.33;;;;;;;26.64;49.04;96283.81;5085101;28;20177;-70
2023/08/17 06:07:14;;;;;;;12.70;5.83;;;;;;;26.63;48.88;96295.63;5084732;28;20197;-69
2023/08/17 06:09:39;;;;;;;12.80;5.23;;;;;;;26.68;49.18;96295.94;5069719;28;20218;-72
2023/08/17 06:12:05;;;;;;;14.03;6.80;;;;;;;26.85;48.89;96290.53;5075572;28;20179;-69
2023/08/17 06:14:31;;;;;;;7.93;6.73;;;;;;;27.22;48.16;96296.19;5090031;28;20226;-69
2023/08/17 06:16:56;;;;;;;9.57;7.73;;;;;;;27.34;47.53;96298.50;5088299;28;20169;-69
2023/08/17 06:19:21;;;;;;;8.70;5.90;;;;;;;27.40;47.18;96293.25;5087678;28;20316;-73
2023/08/17 06:21:47;;;;;;;10.60;6.80;;;;;;;27.74;46.47;96300.16;5088326;28;20625;-74
2023/08/17 06:24:12;;;;;;;9.00;6.93;;;;;;;27.75;46.54;96295.59;5088286;28;20169;-69
2023/08/17 06:26:38;;;;;;;17.97;8.40;;;;;;;27.69;46.61;96299.88;5088057;28;20169;-70
2023/08/17 06:29:03;;;;;;;11.83;10.27;;;;;;;27.76;45.91;96297.31;5090944;28;20192;-73
2023/08/17 06:31:29;;;;;;;21.10;9.90;;;;;;;27.50;47.46;96300.28;5088558;28;20172;-71
2023/08/17 06:33:54;;;;;;;15.73;12.60;;;;;;;27.33;47.42;96302.19;5087759;28;20222;-69
2023/08/17 06:36:20;;;;;;;19.27;12.57;;;;;;;27.48;47.55;96303.16;5088690;28;20204;-69
2023/08/17 06:38:45;;;;;;;20.00;10.60;;;;;;;28.10;46.26;96294.25;5087808;28;20193;-71
2023/08/17 06:41:11;;;;;;;11.10;9.67;;;;;;;27.39;47.43;96301.50;5087658;28;20991;-70
2023/08/17 06:43:36;;;;;;;17.30;10.10;;;;;;;27.90;46.29;96301.97;5088039;28;20179;-71
2023/08/17 06:46:01;;;;;;;20.00;9.93;;;;;;;28.39;45.18;96295.38;5087687;28;20206;-72
2023/08/17 06:48:28;;;;;;;40.47;12.13;;;;;;;28.35;45.70;96299.44;5087707;28;20262;-71
2023/08/17 06:50:53;;;;;;;17.33;10.00;;;;;;;28.51;44.93;96304.75;5087376;28;20165;-69
2023/08/17 06:53:18;;;;;;;19.87;10.37;;;;;;;28.71;44.62;96292.41;5087794;28;20969;-69
2023/08/17 06:55:44;;;;;;;27.17;10.70;;;;;;;28.85;43.89;96298.88;5088270;28;20169;-71
2023/08/17 06:58:09;;;;;;;12.73;11.00;;;;;;;27.78;46.01;96303.34;5087915;28;20904;-71
2023/08/17 07:00:35;;;;;;;16.90;9.90;;;;;;;28.02;45.97;96297.00;5087273;28;20234;-69
2023/08/17 07:03:01;;;;;;;13.27;9.63;;;;;;;27.97;46.20;96300.25;5087515;28;20540;-72
2023/08/17 07:05:27;;;;;;;18.93;10.80;;;;;;;27.69;46.41;96301.72;5087911;28;20878;-70
2023/08/17 07:07:52;;;;;;;15.00;10.30;;;;;;;28.20;45.30;96294.84;5087270;28;20180;-71
2023/08/17 07:10:19;;;;;;;9.83;8.93;;;;;;;28.55;44.11;96297.97;5086947;28;20782;-72
2023/08/17 07:12:45;;;;;;;12.70;9.53;;;;;;;28.58;44.34;96297.59;5074313;28;20227;-72
2023/08/17 07:15:11;;;;;;;10.90;9.87;;;;;;;28.16;45.70;96303.47;5067085;28;20396;-70
2023/08/17 07:17:36;;;;;;;11.30;7.93;;;;;;;27.90;45.60;96301.97;5067034;28;20609;-71
2023/08/17 07:20:03;;;;;;;20.30;8.40;;;;;;;28.33;44.62;96302.34;5066455;28;20275;-70
2023/08/17 07:22:32;;;;;;;19.30;7.30;;;;;;;29.00;43.30;96295.34;5067067;28;20223;-71
2023/08/17 07:24:57;;;;;;;10.23;7.90;;;;;;;28.10;44.68;96298.81;5067273;28;20775;-70
2023/08/17 07:27:22;;;;;;;9.43;6.30;;;;;;;28.41;43.15;96302.25;5066960;28;20399;-69
2023/08/17 07:29:48;;;;;;;13.57;7.23;;;;;;;28.91;42.56;96300.84;5066694;28;20228;-72
2023/08/17 07:32:13;;;;;;;7.70;7.00;;;;;;;28.93;42.90;96303.34;5067547;28;20174;-70
2023/08/17 07:34:38;;;;;;;19.33;7.40;;;;;;;29.19;42.15;96294.81;5067711;28;20547;-70
2023/08/17 07:37:05;;;;;;;13.50;7.00;;;;;;;28.80;42.95;96300.47;5070720;28;20170;-70
2023/08/17 07:39:30;;;;;;;12.50;6.97;;;;;;;28.27;42.89;96301.19;5071159;28;20251;-71
2023/08/17 07:41:56;;;;;;;11.40;7.27;;;;;;;28.65;42.92;96303.09;5067634;28;20415;-72
2023/08/17 07:44:21;;;;;;;11.60;7.30;;;;;;;28.97;42.48;96303.81;5067341;28;20661;-71
2023/08/17 07:46:46;;;;;;;23.83;7.60;;;;;;;28.24;44.38;96300.72;5070320;28;20307;-71
2023/08/17 07:49:12;;;;;;;21.10;7.23;;;;;;;28.45;44.41;96300.88;5070467;28;20196;-71
2023/08/17 07:51:37;;;;;;;18.03;7.23;;;;;;;28.96;43.41;96299.44;5070776;28;20177;-71
2023/08/17 07:54:03;;;;;;;13.97;9.00;;;;;;;28.91;42.65;96298.16;5071060;28;20302;-71
2023/08/17 07:56:28;;;;;;;12.37;6.30;;;;;;;29.37;41.85;96304.44;5071130;28;20260;-71
2023/08/17 07:58:54;;;;;;;13.97;7.33;;;;;;;29.32;41.61;96296.88;5070631;28;20189;-71
2023/08/17 08:01:20;;;;;;;26.53;9.00;;;;;;;29.05;43.05;96301.03;5070497;28;20198;-71
2023/08/17 08:03:45;;;;;;;33.00;10.70;;;;;;;29.53;41.74;96296.13;5070902;28;20185;-70
2023/08/17 08:06:10;;;;;;;22.10;9.30;;;;;;;29.45;41.27;96294.34;5070769;28;20177;-70
2023/08/17 08:08:36;;;;;;;17.53;9.20;;;;;;;29.57;41.21;96289.28;5070514;28;20193;-72
2023/08/17 08:11:01;;;;;;;14.37;11.33;;;;;;;29.17;42.68;96296.03;5070279;28;20773;-70
2023/08/17 08:13:26;;;;;;;19.97;11.60;;;;;;;29.23;42.67;96289.91;5088916;28;20259;-71
2023/08/17 08:15:52;;;;;;;22.20;12.27;;;;;;;28.78;43.77;96297.09;5090647;28;20180;-71
2023/08/17 08:18:17;;;;;;;18.07;10.77;;;;;;;29.34;42.53;96292.13;5090707;28;20173;-70
2023/08/17 08:20:42;;;;;;;10.63;9.30;;;;;;;29.01;42.38;96292.47;5090422;28;20224;-70
2023/08/17 08:23:08;;;;;;;17.07;9.00;;;;;;;29.61;41.92;96285.19;5090433;28;20218;-71
2023/08/17 08:25:33;;;;;;;15.80;9.23;;;;;;;29.03;43.09;96294.97;5090622;28;20192;-71
2023/08/17 08:27:59;;;;;;;11.63;7.50;;;;;;;28.68;44.52;96298.19;5090617;28;20234;-71
2023/08/17 08:30:24;;;;;;;9.50;8.57;;;;;;;28.89;43.87;96297.50;5090199;28;20295;-72
2023/08/17 08:32:49;;;;;;;21.10;9.87;;;;;;;29.06;43.82;96300.03;5090595;28;20192;-72
2023/08/17 08:35:15;;;;;;;11.53;8.07;;;;;;;29.50;42.52;96291.06;5090586;28;20204;-71
2023/08/17 08:37:40;;;;;;;29.83;9.63;;;;;;;29.98;41.34;96288.78;5090548;28;20192;-70
2023/08/17 08:40:12;;;;;;;15.20;9.60;;;;;;;29.69;42.15;96285.09;5090202;28;20261;-71
2023/08/17 08:42:38;;;;;;;11.40;7.87;;;;;;;29.32;42.95;96288.78;5089524;28;20667;-71
2023/08/17 08:45:03;;;;;;;20.90;8.70;;;;;;;29.67;42.76;96292.59;5090165;28;20418;-71
2023/08/17 08:47:32;;;;;;;13.27;7.90;;;;;;;29.94;41.79;96285.59;5091244;28;20169;-71
2023/08/17 08:50:02;;;;;;;26.13;9.40;;;;;;;30.06;41.69;96285.09;5089413;28;20276;-71
2023/08/17 08:52:36;;;;;;;11.60;10.07;;;;;;;29.87;41.76;96289.28;5089931;28;20418;-71
2023/08/17 08:55:15;;;;;;;12.80;8.60;;;;;;;29.81;42.03;96292.72;5090016;28;20893;-71
2023/08/17 08:57:42;;;;;;;10.37;9.10;;;;;;;29.36;43.11;96294.63;5089359;28;20421;-71
2023/08/17 09:00:09;;;;;;;21.93;9.43;;;;;;;29.09;43.51;96294.28;5089671;28;20513;-70
2023/08/17 09:02:35;;;;;;;15.93;9.50;;;;;;;28.81;43.86;96292.16;5089929;28;20399;-70
2023/08/17 09:05:01;;;;;;;13.77;8.97;;;;;;;29.27;43.11;96288.47;5090161;28;20430;-68
2023/08/17 09:07:29;;;;;;;10.23;9.03;;;;;;;29.89;41.99;96284.50;5089834;28;20483;-70
2023/08/17 09:09:55;;;;;;;16.43;8.40;;;;;;;30.24;41.47;96274.69;5089269;28;20425;-71
2023/08/17 09:12:22;;;;;;;17.87;8.83;;;;;;;30.15;41.12;96273.97;5080565;28;20767;-71
2023/08/17 09:14:47;;;;;;;12.43;8.73;;;;;;;30.29;41.62;96280.38;5070031;28;20980;-71
2023/08/17 09:17:13;;;;;;;11.40;8.30;;;;;;;30.22;41.77;96278.63;5069676;28;20598;-70
2023/08/17 09:19:38;;;;;;;11.20;8.73;;;;;;;30.71;40.39;96278.66;5069429;28;20232;-71
2023/08/17 09:22:03;;;;;;;14.90;8.93;;;;;;;30.89;40.43;96274.63;5069654;28;20239;-69
2023/08/17 09:24:36;;;;;;;10.37;9.07;;;;;;;29.97;41.32;96287.91;5069509;28;20264;-71
2023/08/17 09:27:02;;;;;;;8.57;7.40;;;;;;;29.85;42.46;96285.91;5069374;28;20174;-71
2023/08/17 09:29:27;;;;;;;19.13;8.67;;;;;;;30.06;41.38;96277.81;5069150;28;20792;-70
2023/08/17 09:31:53;;;;;;;16.50;8.10;;;;;;;30.30;40.25;96286.63;5069339;28;20243;-70
2023/08/17 09:34:19;;;;;;;23.70;9.37;;;;;;;30.58;40.30;96281.25;5069232;28;20169;-71
2023/08/17 09:36:47;;;;;;;9.83;8.83;;;;;;;29.75;41.48;96278.94;5068894;28;20246;-70
2023/08/17 09:39:15;;;;;;;21.73;8.10;;;;;;;30.66;39.01;96281.09;5068823;28;20427;-70
2023/08/17 09:41:41;;;;;;;20.40;7.50;;;;;;;31.25;36.78;96281.75;5068692;28;20412;-72
2023/08/17 09:44:07;;;;;;;12.10;5.50;;;;;;;31.58;35.05;96285.47;5069014;28;20419;-72
2023/08/17 09:46:32;;;;;;;18.63;5.60;;;;;;;31.66;34.37;96273.63;5069429;28;20177;-69
2023/08/17 09:48:58;;;;;;;7.83;7.03;;;;;;;30.45;37.44;96284.69;5068785;28;20559;-71
2023/08/17 09:51:24;;;;;;;11.70;6.83;;;;;;;30.60;37.24;96282.72;5068670;28;20185;-72
2023/08/17 09:53:55;;;;;;;10.97;6.63;;;;;;;30.23;36.89;96286.53;5069026;28;20247;-72
2023/08/17 09:56:23;;;;;;;5.37;4.70;;;;;;;29.19;38.07;96281.31;5068638;28;20165;-71
2023/08/17 09:58:49;;;;;;;8.50;5.70;;;;;;;29.59;39.50;96284.53;5068769;28;20471;-69
2023/08/17 10:01:15;;;;;;;16.70;7.10;;;;;;;29.13;40.77;96282.06;5071756;28;20628;-70
2023/08/17 10:03:45;;;;;;;6.77;5.97;;;;;;;29.38;40.35;96277.19;5071227;28;20601;-72
2023/08/17 10:06:15;;;;;;;7.33;6.23;;;;;;;29.56;41.11;96276.81;5070119;28;20411;-70
2023/08/17 10:08:46;;;;;;;9.07;6.00;;;;;;;29.24;41.79;96276.19;5067635;28;20428;-70
2023/08/17 10:11:14;;;;;;;7.17;6.30;;;;;;;29.18;41.66;96276.13;5068677;28;20407;-71
2023/08/17 10:13:45;;;;;;;7.33;6.60;;;;;;;29.45;40.84;96275.41;5068681;28;20411;-71
2023/08/17 10:16:20;;;;;;;11.60;5.60;;;;;;;30.45;39.30;96276.56;5068525;28;20414;-72
2023/08/17 10:18:55;;;;;;;7.00;5.80;;;;;;;30.28;38.03;96267.84;5068832;28;20439;-71
2023/08/17 10:21:28;;;;;;;11.73;5.80;;;;;;;30.72;37.20;96265.94;5069097;28;20454;-70
2023/08/17 10:23:56;;;;;;;9.27;5.40;;;;;;;30.41;38.51;96263.63;5069609;28;20753;-70
2023/08/17 10:26:23;;;;;;;5.80;5.30;;;;;;;30.45;38.66;96270.28;5072131;28;20481;-71
2023/08/17 10:28:50;;;;;;;10.33;5.60;;;;;;;30.13;38.50;96261.66;5069932;28;20431;-72
2023/08/17 10:31:15;;;;;;;8.13;5.83;;;;;;;30.54;38.00;96256.41;5070174;28;20407;-71
2023/08/17 10:33:44;;;;;;;10.03;5.50;;;;;;;30.06;37.56;96263.47;5071892;28;20465;-71
2023/08/17 10:36:11;;;;;;;10.63;7.20;;;;;;;30.17;39.37;96260.25;5073337;28;20176;-70
2023/08/17 10:38:36;;;;;;;9.30;6.00;;;;;;;30.23;38.39;96261.31;5077431;28;20408;-69
2023/08/17 10:41:13;;;;;;;7.63;5.40;;;;;;;30.81;37.39;96254.75;5087970;28;20503;-70
2023/08/17 10:43:57;;;;;;;6.77;5.43;;;;;;;30.62;38.74;96257.34;5089644;28;20177;-71
2023/08/17 10:46:33;;;;;;;9.23;5.43;;;;;;;30.89;38.23;96259.22;5092747;28;20396;-71
2023/08/17 10:49:06;;;;;;;13.23;6.60;;;;;;;30.87;38.46;96260.44;5075418;28;21252;-71
2023/08/17 10:51:33;;;;;;;8.10;6.13;;;;;;;30.73;38.56;96259.47;5068251;28;20580;-72
2023/08/17 10:54:02;;;;;;;10.70;5.73;;;;;;;30.42;39.32;96249.88;5068159;28;20515;-71
2023/08/17 10:56:28;;;;;;;8.40;5.23;;;;;;;30.16;40.41;96253.13;5067998;28;20408;-70
2023/08/17 10:58:54;;;;;;;5.93;5.40;;;;;;;30.31;40.10;96255.81;5067824;28;20432;-71
2023/08/17 11:01:40;;;;;;;11.30;5.77;;;;;;;30.11;40.25;96244.75;5068186;28;20459;-71
2023/08/17 11:04:11;;;;;;;10.23;6.17;;;;;;;29.85;41.50;96245.34;5068191;28;20173;-70
2023/08/17 11:06:37;;;;;;;9.67;5.43;;;;;;;29.72;41.48;96249.56;5067852;28;20408;-74
2023/08/17 11:09:07;;;;;;;8.07;5.60;;;;;;;29.91;41.36;96255.41;5067677;28;20497;-72
2023/08/17 11:11:32;;;;;;;10.40;6.10;;;;;;;29.69;41.56;96249.94;5069163;28;20176;-71
2023/08/17 11:13:57;;;;;;;8.00;5.57;;;;;;;30.05;40.90;96240.97;5088285;28;20403;-71
2023/08/17 11:16:23;;;;;;;9.00;5.50;;;;;;;30.41;40.63;96240.06;5088399;28;20222;-70
2023/08/17 11:18:49;;;;;;;9.73;5.60;;;;;;;30.59;40.42;96237.72;5087201;28;20203;-72
2023/08/17 11:21:15;;;;;;;7.50;6.13;;;;;;;30.79;39.84;96231.59;5088082;28;20201;-70
2023/08/17 11:23:40;;;;;;;10.20;5.37;;;;;;;30.89;39.91;96237.53;5087750;28;20907;-70
2023/08/17 11:26:07;;;;;;;11.40;5.80;;;;;;;31.15;39.08;96239.56;5087643;28;20172;-72